createdAt,value
2019-03-13T00:00:26.505Z,-2.00
2019-03-13T00:02:56.575Z,-1.98
2019-03-13T00:05:26.934Z,-1.95
2019-03-13T00:07:56.824Z,-1.96
2019-03-13T00:10:26.728Z,-1.98
2019-03-13T00:12:56.654Z,-1.99
2019-03-13T00:15:26.418Z,-2.04
2019-03-13T00:17:56.245Z,-2.05
2019-03-13T00:20:26.412Z,-2.02
2019-03-13T00:22:56.655Z,-2.02
2019-03-13T00:25:26.684Z,-2.00
2019-03-13T00:27:56.620Z,-1.98
2019-03-13T00:30:26.633Z,-1.98
2019-03-13T00:32:56.476Z,-1.99
2019-03-13T00:35:26.686Z,-1.99
2019-03-13T00:37:56.263Z,-1.99
2019-03-13T00:40:26.453Z,-1.99
2019-03-13T00:42:56.309Z,-2.07
2019-03-13T00:48:05.488Z,-2.23
2019-03-13T00:50:35.282Z,-2.28
2019-03-13T00:53:05.079Z,-2.36
2019-03-13T00:55:35.051Z,-2.44
2019-03-13T00:58:05.175Z,-2.50
2019-03-13T01:00:54.735Z,-2.56
2019-03-13T01:03:42.688Z,-2.68
2019-03-13T01:06:19.955Z,-2.68
2019-03-13T01:08:50.349Z,-2.69
2019-03-13T01:11:20.413Z,-2.68
2019-03-13T01:13:52.798Z,-2.69
2019-03-13T01:16:23.064Z,-2.70
2019-03-13T01:18:53.223Z,-2.67
2019-03-13T01:21:23.044Z,-2.70
2019-03-13T01:23:53.477Z,-2.70
2019-03-13T01:26:23.120Z,-2.67
2019-03-13T01:28:53.192Z,-2.60
2019-03-13T01:31:45.372Z,-2.52
2019-03-13T01:34:46.552Z,-2.45
2019-03-13T01:37:16.391Z,-2.43
2019-03-13T01:39:46.529Z,-2.47
2019-03-13T01:42:16.628Z,-2.47
2019-03-13T01:44:46.413Z,-2.50
2019-03-13T01:47:16.648Z,-2.49
2019-03-13T01:49:46.998Z,-2.48
2019-03-13T01:52:16.748Z,-2.48
2019-03-13T01:54:46.581Z,-2.47
2019-03-13T01:57:16.413Z,-2.47
2019-03-13T01:59:46.304Z,-2.46
2019-03-13T02:02:16.321Z,-2.47
2019-03-13T02:04:46.212Z,-2.45
2019-03-13T02:07:16.475Z,-2.44
2019-03-13T02:09:46.451Z,-2.44
2019-03-13T02:12:16.488Z,-2.43
2019-03-13T02:14:46.451Z,-2.44
2019-03-13T02:17:16.583Z,-2.43
2019-03-13T02:19:49.510Z,-2.44
2019-03-13T02:22:18.586Z,-2.50
2019-03-13T02:24:48.562Z,-2.51
2019-03-13T02:27:18.471Z,-2.51
2019-03-13T02:29:48.387Z,-2.55
2019-03-13T02:32:18.444Z,-2.57
2019-03-13T02:34:48.418Z,-2.57
2019-03-13T02:37:18.160Z,-2.61
2019-03-13T02:39:48.185Z,-2.63
2019-03-13T02:42:18.027Z,-2.65
2019-03-13T02:44:48.089Z,-2.69
2019-03-13T02:47:19.721Z,-2.70
2019-03-13T02:49:49.903Z,-2.74
2019-03-13T02:52:19.664Z,-2.76
2019-03-13T02:54:49.685Z,-2.80
2019-03-13T02:57:19.788Z,-2.82
2019-03-13T02:59:52.387Z,-2.85
2019-03-13T03:02:41.987Z,-2.89
2019-03-13T03:05:12.099Z,-2.87
2019-03-13T03:07:42.106Z,-2.89
2019-03-13T03:10:12.398Z,-2.91
2019-03-13T03:12:42.475Z,-2.96
2019-03-13T03:15:14.724Z,-2.96
2019-03-13T03:17:44.706Z,-3.01
2019-03-13T03:20:16.794Z,-3.07
2019-03-13T03:22:46.990Z,-3.02
2019-03-13T03:25:17.241Z,-2.99
2019-03-13T03:27:48.789Z,-3.04
2019-03-13T03:30:20.643Z,-3.06
2019-03-13T03:32:50.655Z,-3.10
2019-03-13T03:35:20.695Z,-3.10
2019-03-13T03:37:50.848Z,-3.08
2019-03-13T03:40:23.112Z,-3.05
2019-03-13T03:42:53.304Z,-3.00
2019-03-13T03:45:23.324Z,-3.00
2019-03-13T03:47:53.606Z,-2.99
2019-03-13T03:50:23.320Z,-2.93
2019-03-13T03:52:53.348Z,-3.01
2019-03-13T03:55:23.374Z,-2.99
2019-03-13T03:57:54.210Z,-3.00
2019-03-13T04:00:24.277Z,-3.02
2019-03-13T04:02:54.547Z,-2.98
2019-03-13T04:05:24.846Z,-3.01
2019-03-13T04:07:54.845Z,-2.98
2019-03-13T04:10:24.857Z,-2.96
2019-03-13T04:12:54.895Z,-2.97
2019-03-13T04:15:25.222Z,-2.94
2019-03-13T04:17:55.362Z,-2.90
2019-03-13T04:20:25.657Z,-2.87
2019-03-13T04:22:55.832Z,-2.86
2019-03-13T04:25:33.857Z,-2.84
2019-03-13T04:28:04.624Z,-2.83
2019-03-13T04:30:35.545Z,-2.85
2019-03-13T04:33:05.535Z,-2.82
2019-03-13T04:35:35.509Z,-2.80
2019-03-13T04:38:05.555Z,-2.74
2019-03-13T04:40:35.517Z,-2.72
2019-03-13T04:43:05.540Z,-2.68
2019-03-13T04:45:36.632Z,-2.70
2019-03-13T04:48:06.540Z,-2.68
2019-03-13T04:50:36.780Z,-2.68
2019-03-13T04:53:06.776Z,-2.68
2019-03-13T04:55:37.262Z,-2.64
2019-03-13T04:58:07.499Z,-2.65
2019-03-13T05:00:37.519Z,-2.57
2019-03-13T05:03:08.691Z,-2.53
2019-03-13T05:05:42.927Z,-2.59
2019-03-13T05:08:18.739Z,-2.67
2019-03-13T05:10:48.645Z,-2.68
2019-03-13T05:13:19.261Z,-2.70
2019-03-13T05:15:49.425Z,-2.64
2019-03-13T05:18:19.659Z,-2.68
2019-03-13T05:20:50.498Z,-2.72
2019-03-13T05:23:20.989Z,-2.67
2019-03-13T05:25:51.240Z,-2.55
2019-03-13T05:28:21.628Z,-2.48
2019-03-13T05:30:53.066Z,-2.42
2019-03-13T05:33:23.564Z,-2.42
2019-03-13T05:35:54.257Z,-2.38
2019-03-13T05:38:24.460Z,-2.34
2019-03-13T05:40:54.682Z,-2.33
2019-03-13T05:43:25.352Z,-2.24
2019-03-13T05:45:56.733Z,-2.15
2019-03-13T05:48:27.152Z,-2.06
2019-03-13T05:50:57.273Z,-1.87
2019-03-13T05:53:27.697Z,-1.80
2019-03-13T05:55:58.330Z,-1.82
2019-03-13T05:58:29.010Z,-1.98
2019-03-13T06:01:00.681Z,-2.01
2019-03-13T06:03:30.875Z,-1.85
2019-03-13T06:06:01.292Z,-1.61
2019-03-13T06:08:31.626Z,-1.43
2019-03-13T06:11:02.044Z,-1.30
2019-03-13T06:13:32.789Z,-1.12
2019-03-13T06:16:03.009Z,-1.08
2019-03-13T06:18:33.296Z,-1.07
2019-03-13T06:21:03.494Z,-0.94
2019-03-13T06:23:34.818Z,-0.92
2019-03-13T06:26:06.185Z,-1.05
2019-03-13T06:28:36.518Z,-1.22
2019-03-13T06:31:07.996Z,-1.18
2019-03-13T06:33:38.830Z,-1.30
2019-03-13T06:36:08.897Z,-1.41
2019-03-13T06:38:39.037Z,-1.40
2019-03-13T06:41:08.964Z,-1.19
2019-03-13T06:43:38.874Z,-0.97
2019-03-13T06:46:09.304Z,-0.81
2019-03-13T06:48:39.416Z,-0.97
2019-03-13T06:51:09.991Z,-1.06
2019-03-13T06:53:40.387Z,-1.19
2019-03-13T06:56:10.881Z,-1.23
2019-03-13T06:59:04.182Z,-1.25
2019-03-13T07:01:52.723Z,-1.27
2019-03-13T07:04:40.403Z,-1.37
2019-03-13T07:07:20.917Z,-1.41
2019-03-13T07:09:56.879Z,-1.33
2019-03-13T07:12:38.296Z,-1.11
2019-03-13T07:15:30.415Z,-0.89
2019-03-13T07:18:26.586Z,-0.93
2019-03-13T07:21:28.933Z,-1.19
2019-03-13T07:24:14.744Z,-1.24
2019-03-13T07:26:54.693Z,-1.19
2019-03-13T07:29:49.065Z,-0.88
2019-03-13T07:32:41.879Z,-0.83
2019-03-13T07:35:46.498Z,-0.87
2019-03-13T07:38:41.658Z,-0.74
2019-03-13T07:41:30.368Z,-0.51
2019-03-13T07:44:30.839Z,-0.51
2019-03-13T07:47:19.174Z,-0.41
2019-03-13T07:49:56.902Z,-0.47
2019-03-13T07:52:46.660Z,-0.28
2019-03-13T07:55:34.355Z,-0.22
2019-03-13T07:58:20.953Z,-0.03
2019-03-13T08:01:13.418Z,-0.13
2019-03-13T08:04:04.955Z,-0.26
2019-03-13T08:06:51.477Z,-0.23
2019-03-13T08:09:49.539Z,-0.15
2019-03-13T08:12:37.592Z,-0.14
2019-03-13T08:15:28.640Z,-0.13
2019-03-13T08:18:24.700Z,-0.10
2019-03-13T08:21:22.331Z,-0.13
2019-03-13T08:24:18.928Z,-0.04
2019-03-13T08:27:08.964Z,-0.11
2019-03-13T08:29:56.441Z,-0.43
2019-03-13T08:32:46.685Z,-0.54
2019-03-13T08:35:35.113Z,-0.46
2019-03-13T08:38:25.434Z,-0.12
2019-03-13T08:41:14.920Z,0.28
2019-03-13T08:44:04.795Z,0.30
2019-03-13T08:46:57.544Z,0.11
2019-03-13T08:49:38.818Z,0.23
2019-03-13T08:52:34.111Z,0.30
2019-03-13T08:55:22.594Z,0.31
2019-03-13T08:58:26.728Z,0.26
2019-03-13T09:01:16.020Z,0.62
2019-03-13T09:04:19.053Z,1.10
2019-03-13T09:07:11.044Z,1.19
2019-03-13T09:09:59.006Z,0.94
2019-03-13T09:12:40.854Z,0.84
2019-03-13T09:15:26.854Z,0.49
2019-03-13T09:18:19.361Z,0.10
2019-03-13T09:21:02.321Z,0.04
2019-03-13T09:23:55.490Z,0.12
2019-03-13T09:26:35.733Z,0.56
2019-03-13T09:29:31.685Z,1.16
2019-03-13T09:32:21.863Z,1.53
2019-03-13T09:35:17.475Z,1.62
2019-03-13T09:38:01.150Z,1.51
2019-03-13T09:40:53.989Z,1.42
2019-03-13T09:43:49.994Z,1.46
2019-03-13T09:46:51.737Z,1.37
2019-03-13T09:49:40.059Z,1.33
2019-03-13T09:52:19.326Z,1.47
2019-03-13T09:55:10.284Z,1.53
2019-03-13T09:58:00.032Z,1.41
2019-03-13T10:00:48.923Z,1.13
2019-03-13T10:03:25.727Z,0.91
2019-03-13T10:06:15.424Z,0.80
2019-03-13T10:09:03.359Z,0.47
2019-03-13T10:11:55.783Z,0.11
2019-03-13T10:14:49.183Z,-0.08
2019-03-13T10:17:31.028Z,0.03
2019-03-13T10:20:20.828Z,0.40
2019-03-13T10:23:04.365Z,1.00
2019-03-13T10:25:52.778Z,1.60
2019-03-13T10:28:32.935Z,2.04
2019-03-13T10:31:31.784Z,2.23
2019-03-13T10:34:27.721Z,2.17
2019-03-13T10:37:18.480Z,2.04
2019-03-13T10:40:11.104Z,1.92
2019-03-13T10:43:01.369Z,1.73
2019-03-13T10:46:09.464Z,1.70
2019-03-13T10:49:00.822Z,1.51
2019-03-13T10:51:48.873Z,1.46
2019-03-13T10:54:50.621Z,1.51
2019-03-13T10:57:52.711Z,1.36
2019-03-13T11:00:31.075Z,1.17
2019-03-13T11:03:19.174Z,1.20
2019-03-13T11:06:07.821Z,1.21
2019-03-13T11:09:01.648Z,1.18
2019-03-13T11:11:46.726Z,1.11
2019-03-13T11:14:33.744Z,0.97
2019-03-13T11:17:26.489Z,0.88
2019-03-13T11:20:25.050Z,0.93
2019-03-13T11:23:23.448Z,1.07
2019-03-13T11:26:06.571Z,1.13
2019-03-13T11:28:46.737Z,1.41
2019-03-13T11:31:42.648Z,1.70
2019-03-13T11:34:21.627Z,1.95
2019-03-13T11:37:14.906Z,2.10
2019-03-13T11:40:17.535Z,2.04
2019-03-13T11:43:10.447Z,1.95
2019-03-13T11:45:54.336Z,1.85
2019-03-13T11:48:44.381Z,1.94
2019-03-13T11:51:51.005Z,2.23
2019-03-13T11:54:49.618Z,2.40
2019-03-13T11:57:38.814Z,2.25
2019-03-13T12:00:41.327Z,2.32
2019-03-13T12:03:31.529Z,2.19
2019-03-13T12:06:27.541Z,1.97
2019-03-13T12:09:15.416Z,1.88
2019-03-13T12:11:59.691Z,1.83
2019-03-13T12:14:52.735Z,1.83
2019-03-13T12:17:30.965Z,1.95
2019-03-13T12:20:26.184Z,2.17
2019-03-13T12:23:07.283Z,2.26
2019-03-13T12:25:57.935Z,2.33
2019-03-13T12:28:52.622Z,2.46
2019-03-13T12:31:39.318Z,2.57
2019-03-13T12:34:14.356Z,2.64
2019-03-13T12:37:03.887Z,2.59
2019-03-13T12:39:59.926Z,2.58
2019-03-13T12:42:42.557Z,2.55
2019-03-13T12:45:36.852Z,2.48
2019-03-13T12:48:17.695Z,2.19
2019-03-13T12:51:06.826Z,1.86
2019-03-13T12:53:56.513Z,1.60
2019-03-13T12:56:33.981Z,1.31
2019-03-13T12:59:13.975Z,1.48
2019-03-13T13:02:04.241Z,1.50
2019-03-13T13:04:52.985Z,2.67
2019-03-13T13:07:45.422Z,4.32
2019-03-13T13:10:28.408Z,4.46
2019-03-13T13:13:15.526Z,4.24
2019-03-13T13:15:58.580Z,4.27
2019-03-13T13:18:48.291Z,4.76
2019-03-13T13:21:19.173Z,4.76
2019-03-13T13:23:49.994Z,4.57
2019-03-13T13:26:20.279Z,4.96
2019-03-13T13:28:50.950Z,5.49
2019-03-13T13:31:21.204Z,6.17
2019-03-13T13:33:51.150Z,7.01
2019-03-13T13:36:21.906Z,6.98
2019-03-13T13:38:52.650Z,7.43
2019-03-13T13:41:23.196Z,8.07
2019-03-13T13:43:53.957Z,8.84
2019-03-13T13:46:29.279Z,9.35
2019-03-13T13:48:59.619Z,9.36
2019-03-13T13:51:32.583Z,9.82
2019-03-13T13:54:02.008Z,10.50
2019-03-13T13:56:32.263Z,11.04
2019-03-13T13:59:03.077Z,11.40
2019-03-13T14:01:33.290Z,11.00
2019-03-13T14:04:03.559Z,10.76
2019-03-13T14:06:34.272Z,10.59
2019-03-13T14:09:05.109Z,9.52
2019-03-13T14:11:35.881Z,8.38
2019-03-13T14:14:09.434Z,6.95
2019-03-13T14:16:39.538Z,5.43
2019-03-13T14:19:10.433Z,4.34
2019-03-13T14:21:41.367Z,3.66
2019-03-13T14:24:12.433Z,3.09
2019-03-13T14:26:43.406Z,2.51
2019-03-13T14:29:13.775Z,1.92
2019-03-13T14:31:45.696Z,1.45
2019-03-13T14:34:16.386Z,1.13
2019-03-13T14:36:47.050Z,0.85
2019-03-13T14:39:17.705Z,0.61
2019-03-13T14:41:47.993Z,0.37
2019-03-13T14:44:18.816Z,0.19
2019-03-13T14:46:49.816Z,0.01
2019-03-13T14:49:20.746Z,-0.15
2019-03-13T14:51:52.140Z,-0.28
2019-03-13T14:54:22.561Z,-0.40
2019-03-13T14:56:52.990Z,-0.51
2019-03-13T14:59:24.129Z,-0.61
2019-03-13T15:01:54.781Z,-0.72
2019-03-13T15:04:25.113Z,-0.81
2019-03-13T15:06:55.888Z,-0.88
2019-03-13T15:09:26.197Z,-0.96
2019-03-13T15:11:56.698Z,-1.03
2019-03-13T15:14:27.067Z,-1.11
2019-03-13T15:16:57.638Z,-1.08
2019-03-13T15:19:28.159Z,-1.07
2019-03-13T15:21:58.802Z,-1.07
2019-03-13T15:24:29.002Z,-1.09
2019-03-13T15:26:59.193Z,-1.14
2019-03-13T15:29:29.957Z,-1.19
2019-03-13T15:32:00.351Z,-1.17
2019-03-13T15:34:31.100Z,-1.17
2019-03-13T15:37:01.798Z,-1.17
2019-03-13T15:39:32.624Z,-1.19
2019-03-13T15:42:03.281Z,-1.24
2019-03-13T15:44:33.655Z,-1.35
2019-03-13T15:47:03.790Z,-1.46
2019-03-13T15:49:34.077Z,-1.53
2019-03-13T15:52:04.378Z,-1.64
2019-03-13T15:54:34.710Z,-1.71
2019-03-13T15:57:05.023Z,-1.75
2019-03-13T15:59:35.162Z,-1.79
2019-03-13T16:02:05.266Z,-1.80
2019-03-13T16:04:35.302Z,-1.88
2019-03-13T16:07:05.273Z,-1.92
2019-03-13T16:09:35.439Z,-1.99
2019-03-13T16:12:05.821Z,-2.01
2019-03-13T16:14:35.984Z,-2.05
2019-03-13T16:17:05.960Z,-2.07
2019-03-13T16:19:36.391Z,-2.10
2019-03-13T16:22:07.768Z,-2.13
2019-03-13T16:24:37.938Z,-2.16
2019-03-13T16:27:08.969Z,-2.16
2019-03-13T16:29:38.694Z,-2.20
2019-03-13T16:32:13.390Z,-2.22
2019-03-13T16:34:44.663Z,-2.27
2019-03-13T16:37:15.144Z,-2.29
2019-03-13T16:39:46.169Z,-2.29
2019-03-13T16:42:19.556Z,-2.29
2019-03-13T16:44:50.458Z,-2.29
2019-03-13T16:47:21.332Z,-2.35
2019-03-13T16:49:53.639Z,-2.40
2019-03-13T16:52:25.044Z,-2.48
2019-03-13T16:54:58.217Z,-2.49
2019-03-13T16:57:28.875Z,-2.51
2019-03-13T17:00:00.783Z,-2.51
2019-03-13T17:02:31.518Z,-2.51
2019-03-13T17:05:02.512Z,-2.57
2019-03-13T17:07:34.905Z,-2.60
2019-03-13T17:10:06.938Z,-2.54
2019-03-13T17:12:40.548Z,-2.57
2019-03-13T17:15:13.686Z,-2.62
2019-03-13T17:17:44.398Z,-2.64
2019-03-13T17:20:17.505Z,-2.68
2019-03-13T17:22:48.322Z,-2.72
2019-03-13T17:25:19.239Z,-2.78
2019-03-13T17:27:50.938Z,-2.79
2019-03-13T17:30:23.622Z,-2.74
2019-03-13T17:32:54.955Z,-2.70
2019-03-13T17:35:25.168Z,-2.75
2019-03-13T17:37:55.571Z,-2.79
2019-03-13T17:40:26.961Z,-2.84
2019-03-13T17:42:57.814Z,-2.82
2019-03-13T17:45:30.614Z,-2.82
2019-03-13T17:48:00.942Z,-2.81
2019-03-13T17:50:31.394Z,-2.81
2019-03-13T17:53:02.313Z,-2.84
2019-03-13T17:55:32.601Z,-2.89
2019-03-13T17:58:03.155Z,-2.91
2019-03-13T18:00:51.900Z,-2.91
2019-03-13T18:03:25.366Z,-2.89
2019-03-13T18:05:58.226Z,-2.97
2019-03-13T18:08:28.489Z,-2.99
2019-03-13T18:10:59.899Z,-2.96
2019-03-13T18:13:30.940Z,-2.93
2019-03-13T18:16:04.446Z,-2.89
2019-03-13T18:20:44.482Z,-2.81
2019-03-13T18:23:15.390Z,-2.84
2019-03-13T18:25:49.024Z,-2.87
2019-03-13T18:28:22.408Z,-2.92
2019-03-13T18:30:53.365Z,-2.99
2019-03-13T18:33:26.581Z,-3.01
2019-03-13T18:35:58.790Z,-3.04
2019-03-13T18:38:30.842Z,-3.01
2019-03-13T18:41:02.875Z,-3.02
2019-03-13T18:43:33.868Z,-3.07
2019-03-13T18:46:04.577Z,-3.08
2019-03-13T18:48:35.565Z,-3.09
2019-03-13T18:51:07.076Z,-3.12
2019-03-13T18:53:38.036Z,-3.08
2019-03-13T18:56:08.482Z,-3.12
2019-03-13T18:58:39.172Z,-3.19
2019-03-13T19:01:10.942Z,-3.19
2019-03-13T19:03:41.800Z,-3.11
2019-03-13T19:06:14.015Z,-3.10
2019-03-13T19:08:44.094Z,-3.11
2019-03-13T19:11:14.367Z,-3.15
2019-03-13T19:13:45.831Z,-3.19
2019-03-13T19:16:16.113Z,-3.19
2019-03-13T19:18:46.265Z,-3.24
2019-03-13T19:21:19.660Z,-3.28
2019-03-13T19:23:53.865Z,-3.25
2019-03-13T19:26:25.768Z,-3.27
2019-03-13T19:29:01.389Z,-3.32
2019-03-13T19:31:40.160Z,-3.37
2019-03-13T19:34:11.529Z,-3.35
2019-03-13T19:36:43.353Z,-3.34
2019-03-13T19:39:18.898Z,-3.33
2019-03-13T19:41:50.241Z,-3.37
2019-03-13T19:44:21.790Z,-3.40
2019-03-13T19:46:52.629Z,-3.41
2019-03-13T19:49:25.595Z,-3.39
2019-03-13T19:51:56.988Z,-3.37
2019-03-13T19:54:29.503Z,-3.39
2019-03-13T19:57:00.323Z,-3.46
2019-03-13T19:59:31.133Z,-3.52
2019-03-13T20:02:01.924Z,-3.52
2019-03-13T20:04:46.679Z,-3.54
2019-03-13T20:07:07.369Z,-3.57
2019-03-13T20:09:37.622Z,-3.60
2019-03-13T20:12:07.961Z,-3.59
2019-03-13T20:14:39.302Z,-3.56
2019-03-13T20:17:09.809Z,-3.57
2019-03-13T20:19:40.449Z,-3.58
2019-03-13T20:22:11.325Z,-3.61
2019-03-13T20:24:41.515Z,-3.60
2019-03-13T20:27:12.076Z,-3.61
2019-03-13T20:29:44.478Z,-3.60
2019-03-13T20:32:15.353Z,-3.61
2019-03-13T20:34:46.474Z,-3.62
2019-03-13T20:37:16.902Z,-3.65
2019-03-13T20:39:46.969Z,-3.66
2019-03-13T20:42:17.295Z,-3.66
2019-03-13T20:44:47.582Z,-3.66
2019-03-13T20:47:18.668Z,-3.65
2019-03-13T20:49:49.032Z,-3.65
2019-03-13T20:52:18.780Z,-3.62
2019-03-13T20:54:48.714Z,-3.55
2019-03-13T20:57:19.009Z,-3.53
2019-03-13T20:59:48.943Z,-3.55
2019-03-13T21:02:19.406Z,-3.57
2019-03-13T21:04:50.709Z,-3.62
2019-03-13T21:07:21.168Z,-3.62
2019-03-13T21:09:51.233Z,-3.65
2019-03-13T21:12:23.045Z,-3.69
2019-03-13T21:14:53.091Z,-3.73
2019-03-13T21:17:22.996Z,-3.79
2019-03-13T21:19:53.080Z,-3.82
2019-03-13T21:22:22.995Z,-3.87
2019-03-13T21:24:53.339Z,-3.88
2019-03-13T21:27:23.511Z,-3.92
2019-03-13T21:29:53.621Z,-3.92
2019-03-13T21:32:23.799Z,-3.93
2019-03-13T21:34:54.591Z,-3.91
2019-03-13T21:37:24.686Z,-3.92
2019-03-13T21:39:54.784Z,-3.91
2019-03-13T21:42:24.721Z,-3.89
2019-03-13T21:44:54.838Z,-3.85
2019-03-13T21:47:25.128Z,-3.82
2019-03-13T21:49:55.035Z,-3.82
2019-03-13T21:52:25.231Z,-3.83
2019-03-13T21:54:55.215Z,-3.84
2019-03-13T21:57:24.964Z,-3.86
2019-03-13T21:59:55.692Z,-3.86
2019-03-13T22:02:32.562Z,-3.87
2019-03-13T22:04:57.590Z,-3.87
2019-03-13T22:07:27.498Z,-3.91
2019-03-13T22:09:58.661Z,-3.92
2019-03-13T22:12:28.601Z,-3.93
2019-03-13T22:14:58.526Z,-3.94
2019-03-13T22:17:28.699Z,-3.94
2019-03-13T22:20:01.238Z,-3.94
2019-03-13T22:22:31.210Z,-3.91
2019-03-13T22:25:01.179Z,-3.95
2019-03-13T22:30:28.791Z,-4.01
2019-03-13T22:32:58.365Z,-4.09
2019-03-13T22:35:28.424Z,-4.09
2019-03-13T22:37:58.473Z,-4.14
2019-03-13T22:40:28.437Z,-4.17
2019-03-13T22:42:58.375Z,-4.22
2019-03-13T22:45:28.711Z,-4.27
2019-03-13T22:47:58.725Z,-4.28
2019-03-13T22:50:28.914Z,-4.31
2019-03-13T22:52:59.059Z,-4.31
2019-03-13T22:55:29.141Z,-4.33
2019-03-13T22:58:01.524Z,-4.40
2019-03-13T23:00:55.888Z,-4.49
2019-03-13T23:03:27.695Z,-4.54
2019-03-13T23:05:58.260Z,-4.56
2019-03-13T23:08:30.918Z,-4.62
2019-03-13T23:11:00.512Z,-4.66
2019-03-13T23:13:30.539Z,-4.69
2019-03-13T23:16:01.483Z,-4.74
2019-03-13T23:18:31.612Z,-4.78
2019-03-13T23:21:15.452Z,-4.83
2019-03-13T23:23:45.634Z,-4.88
2019-03-13T23:26:15.551Z,-4.91
2019-03-13T23:28:45.705Z,-4.81
2019-03-13T23:31:15.966Z,-4.73
2019-03-13T23:33:46.078Z,-4.70
2019-03-13T23:36:16.080Z,-4.74
2019-03-13T23:38:45.728Z,-4.77
2019-03-13T23:41:16.003Z,-4.79
2019-03-13T23:43:46.219Z,-4.85
2019-03-13T23:46:16.931Z,-4.94
2019-03-13T23:48:48.657Z,-4.98
2019-03-13T23:51:26.371Z,-5.01
2019-03-13T23:53:57.733Z,-5.03
2019-03-13T23:56:28.911Z,-5.03
2019-03-13T23:59:01.493Z,-5.00
